Terminal Aerodrome Forecast
Issued by NWS

Home | Current Version | Previous Version | Text Only | Print | Product List | Glossary On
Versions: 1 2 3 4 5 6 7 8 9 10 11 12 13 14 15
000
FTUS44 KLIX 202337
TAFHDC
TAF
KHDC 202337Z 2100/2124 17008KT P6SM SKC
     FM211400 16005KT P6SM SCT025 PROB30 2115/2117 4SM -TSRA
      BKN025CB
     FM211700 00000KT P6SM SCT030 BKN100 PROB30 2119/2123 4SM -TSRA
      BKN030CB BKN040=

USA.gov is the U.S. government's official web portal to all federal, state and local government web resources and services.